createdAt,value
2022-09-06T00:01:15.251Z,63.83
2022-09-06T00:04:17.282Z,64.25
2022-09-06T00:07:18.985Z,64.47
2022-09-06T00:10:21.182Z,64.52
2022-09-06T00:13:22.835Z,65.29
2022-09-06T00:16:28.545Z,66.31
2022-09-06T00:19:32.070Z,66.96
2022-09-06T00:22:33.778Z,67.59
2022-09-06T00:25:35.909Z,68.11
2022-09-06T00:28:38.716Z,68.38
2022-09-06T00:31:40.392Z,68.15
2022-09-06T00:34:42.233Z,67.95
2022-09-06T00:37:44.200Z,68.08
2022-09-06T00:40:45.863Z,67.95
2022-09-06T00:43:47.663Z,67.85
2022-09-06T00:46:51.540Z,67.56
2022-09-06T00:49:56.705Z,67.47
2022-09-06T00:52:58.628Z,67.34
2022-09-06T00:56:00.733Z,67.21
2022-09-06T00:59:02.461Z,67.54
2022-09-06T01:02:05.670Z,67.10
2022-09-06T01:05:07.954Z,67.57
2022-09-06T01:08:40.288Z,67.48
2022-09-06T01:12:08.549Z,67.49
2022-09-06T01:15:35.205Z,67.38
2022-09-06T01:18:52.844Z,67.54
2022-09-06T01:22:25.605Z,67.49
2022-09-06T01:25:49.055Z,67.38
2022-09-06T01:28:52.857Z,67.42
2022-09-06T01:32:09.165Z,67.68
2022-09-06T01:35:34.019Z,67.39
2022-09-06T01:38:35.991Z,67.69
2022-09-06T01:41:37.641Z,67.55
2022-09-06T01:44:47.952Z,68.27
2022-09-06T01:48:17.009Z,69.40
2022-09-06T01:51:30.128Z,69.95
2022-09-06T01:54:57.871Z,70.42
2022-09-06T01:58:23.821Z,70.87
2022-09-06T02:01:41.215Z,70.98
2022-09-06T02:04:47.572Z,70.57
2022-09-06T02:07:52.703Z,70.43
2022-09-06T02:11:01.620Z,70.51
2022-09-06T02:14:10.317Z,70.73
2022-09-06T02:17:17.598Z,70.53
2022-09-06T02:20:24.906Z,70.57
2022-09-06T02:23:31.564Z,70.42
2022-09-06T02:26:38.761Z,70.53
2022-09-06T02:29:41.270Z,70.79
2022-09-06T02:32:49.946Z,70.83
2022-09-06T02:35:54.992Z,70.90
2022-09-06T02:38:57.192Z,71.33
2022-09-06T02:41:59.440Z,71.30
2022-09-06T02:45:01.089Z,71.86
2022-09-06T02:48:02.979Z,72.02
2022-09-06T02:51:06.267Z,72.04
2022-09-06T02:54:07.982Z,72.19
2022-09-06T02:57:09.588Z,72.35
2022-09-06T03:00:12.104Z,72.63
2022-09-06T03:03:14.468Z,72.56
2022-09-06T03:06:16.092Z,72.87
2022-09-06T03:09:17.787Z,73.03
2022-09-06T03:12:19.404Z,73.33
2022-09-06T03:15:22.423Z,73.36
2022-09-06T03:18:25.449Z,73.53
2022-09-06T03:21:27.197Z,73.89
2022-09-06T03:24:28.813Z,73.59
2022-09-06T03:27:30.427Z,73.68
2022-09-06T03:30:32.129Z,73.94
2022-09-06T03:33:33.903Z,73.97
2022-09-06T03:36:35.708Z,73.97
2022-09-06T03:39:37.366Z,73.69
2022-09-06T03:42:39.040Z,73.82
2022-09-06T03:45:44.467Z,73.69
2022-09-06T03:48:46.097Z,73.72
2022-09-06T03:51:48.109Z,73.36
2022-09-06T03:54:50.482Z,73.26
2022-09-06T03:57:52.339Z,73.45
2022-09-06T04:01:09.545Z,73.03
2022-09-06T04:04:11.354Z,73.23
2022-09-06T04:07:13.318Z,73.28
2022-09-06T04:10:15.375Z,72.70
2022-09-06T04:13:18.271Z,72.84
2022-09-06T04:16:20.170Z,72.74
2022-09-06T04:19:22.110Z,72.23
2022-09-06T04:22:23.969Z,72.29
2022-09-06T04:25:25.685Z,71.65
2022-09-06T04:28:28.007Z,71.55
2022-09-06T04:31:32.117Z,71.43
2022-09-06T04:34:34.241Z,71.29
2022-09-06T04:37:36.056Z,71.31
2022-09-06T04:40:37.638Z,71.25
2022-09-06T04:43:40.388Z,71.13
2022-09-06T04:46:42.641Z,71.40
2022-09-06T04:49:44.273Z,71.00
2022-09-06T04:52:46.348Z,70.76
2022-09-06T04:55:48.059Z,70.85
2022-09-06T04:58:50.961Z,70.37
2022-09-06T05:01:52.571Z,70.21
2022-09-06T05:04:54.808Z,70.01
2022-09-06T05:07:57.093Z,70.14
2022-09-06T05:10:58.695Z,70.37
2022-09-06T05:14:00.551Z,70.15
2022-09-06T05:17:02.210Z,70.33
2022-09-06T05:20:04.820Z,70.02
2022-09-06T05:23:06.783Z,69.63
2022-09-06T05:26:08.709Z,69.76
2022-09-06T05:29:10.386Z,69.80
2022-09-06T05:32:12.397Z,69.69
2022-09-06T05:35:14.056Z,70.03
2022-09-06T05:38:15.820Z,69.75
2022-09-06T05:41:17.819Z,69.89
2022-09-06T05:44:19.429Z,70.03
2022-09-06T05:47:21.060Z,70.35
2022-09-06T05:50:22.834Z,71.18
2022-09-06T05:53:24.436Z,71.79
2022-09-06T05:56:26.220Z,72.26
2022-09-06T05:59:27.929Z,73.14
2022-09-06T06:02:29.587Z,73.11
2022-09-06T06:05:31.273Z,73.36
2022-09-06T06:08:32.950Z,73.72
2022-09-06T06:11:34.598Z,73.53
2022-09-06T06:14:36.290Z,73.43
2022-09-06T06:17:37.920Z,71.84
2022-09-06T06:20:42.409Z,71.28
2022-09-06T06:23:47.640Z,70.51
2022-09-06T06:26:49.296Z,70.84
2022-09-06T06:29:52.419Z,71.32
2022-09-06T06:32:58.422Z,70.88
2022-09-06T06:36:02.280Z,70.98
2022-09-06T06:39:06.392Z,69.92
2022-09-06T06:42:09.175Z,70.13
2022-09-06T06:45:24.023Z,69.89
2022-09-06T06:48:25.805Z,69.74
2022-09-06T06:51:30.548Z,69.64
2022-09-06T06:54:32.231Z,69.56
2022-09-06T06:57:34.049Z,69.87
2022-09-06T07:00:35.761Z,70.40
2022-09-06T07:03:37.777Z,70.65
2022-09-06T07:13:37.230Z,71.54
2022-09-06T07:16:38.948Z,75.31
2022-09-06T07:26:30.347Z,79.96
2022-09-06T07:29:31.915Z,79.79
2022-09-06T07:32:36.744Z,78.93
2022-09-06T07:35:38.319Z,79.45
2022-09-06T07:38:40.539Z,79.89
2022-09-06T07:41:42.988Z,80.09
2022-09-06T07:44:44.668Z,79.63
2022-09-06T07:47:57.377Z,79.57
2022-09-06T07:51:07.768Z,79.42
2022-09-06T07:57:31.098Z,76.05
2022-09-06T08:00:32.914Z,74.20
2022-09-06T08:03:35.886Z,74.48
2022-09-06T08:10:01.844Z,71.63
2022-09-06T08:13:03.527Z,71.14
2022-09-06T08:16:08.045Z,71.25
2022-09-06T08:19:10.893Z,71.34
2022-09-06T08:22:12.687Z,68.80
2022-09-06T08:25:14.377Z,66.95
2022-09-06T08:28:16.018Z,67.50
2022-09-06T08:31:17.954Z,67.40
2022-09-06T08:34:19.734Z,66.17
2022-09-06T08:37:24.985Z,66.38
2022-09-06T08:40:26.852Z,65.78
2022-09-06T08:43:28.739Z,64.22
2022-09-06T08:46:47.168Z,62.84
2022-09-06T08:49:56.780Z,63.49
2022-09-06T08:53:18.105Z,63.40
2022-09-06T08:56:37.552Z,62.44
2022-09-06T08:59:41.194Z,61.20
2022-09-06T09:02:46.531Z,62.77
2022-09-06T09:05:52.589Z,62.87
2022-09-06T09:09:06.081Z,61.69
2022-09-06T09:12:15.722Z,61.85
2022-09-06T09:15:19.918Z,61.44
2022-09-06T09:18:50.613Z,61.65
2022-09-06T09:21:52.376Z,61.64
2022-09-06T09:24:58.939Z,60.80
2022-09-06T09:28:00.965Z,60.12
2022-09-06T09:31:04.663Z,60.61
2022-09-06T09:34:34.299Z,61.57
2022-09-06T09:42:01.710Z,59.05
2022-09-06T09:45:36.852Z,59.63
2022-09-06T09:48:47.100Z,61.09
2022-09-06T09:52:12.594Z,58.79
2022-09-06T09:55:14.389Z,59.41
2022-09-06T09:58:41.068Z,60.20
2022-09-06T10:01:42.748Z,61.22
2022-09-06T10:04:47.146Z,61.09
2022-09-06T10:08:00.519Z,60.82
2022-09-06T10:11:02.225Z,60.91
2022-09-06T10:14:21.986Z,61.81
2022-09-06T10:17:26.729Z,60.62
2022-09-06T10:20:39.910Z,60.91
2022-09-06T10:27:10.191Z,60.76
2022-09-06T10:30:14.133Z,60.84
2022-09-06T10:33:33.065Z,59.63
2022-09-06T10:36:37.714Z,59.72
2022-09-06T10:40:01.890Z,59.31
2022-09-06T10:43:08.514Z,59.00
2022-09-06T10:46:16.407Z,59.20
2022-09-06T10:49:19.815Z,60.00
2022-09-06T10:52:44.954Z,58.54
2022-09-06T10:55:50.799Z,58.26
2022-09-06T11:02:26.931Z,57.95
2022-09-06T11:09:02.829Z,57.06
2022-09-06T11:12:13.262Z,57.07
2022-09-06T11:16:24.920Z,55.75
2022-09-06T11:19:38.636Z,54.89
2022-09-06T11:22:56.879Z,55.13
2022-09-06T11:26:23.722Z,54.56
2022-09-06T11:29:35.659Z,53.97
2022-09-06T11:33:05.881Z,54.08
2022-09-06T11:36:32.168Z,53.75
2022-09-06T11:43:07.915Z,53.00
2022-09-06T11:46:09.692Z,52.96
2022-09-06T11:49:31.850Z,52.32
2022-09-06T11:53:16.988Z,52.55
2022-09-06T11:56:50.031Z,52.87
2022-09-06T12:00:01.755Z,52.15
2022-09-06T12:07:16.623Z,51.53
2022-09-06T12:10:41.992Z,51.24
2022-09-06T12:13:47.029Z,51.23
2022-09-06T12:17:09.117Z,51.20
2022-09-06T12:20:52.983Z,51.69
2022-09-06T12:24:04.083Z,50.68
2022-09-06T12:27:35.114Z,50.58
2022-09-06T12:30:52.679Z,50.40
2022-09-06T12:33:55.242Z,50.56
2022-09-06T12:37:09.193Z,50.71
2022-09-06T12:40:21.246Z,51.18
2022-09-06T12:43:26.384Z,50.68
2022-09-06T12:46:30.180Z,50.09
2022-09-06T12:49:32.073Z,50.49
2022-09-06T12:52:33.684Z,49.47
2022-09-06T12:55:38.494Z,49.45
2022-09-06T12:58:40.739Z,49.42
2022-09-06T13:02:22.197Z,49.90
2022-09-06T13:05:24.897Z,48.89
2022-09-06T13:08:55.450Z,49.38
2022-09-06T13:12:06.514Z,49.14
2022-09-06T13:15:14.239Z,49.10
2022-09-06T13:18:37.297Z,49.06
2022-09-06T13:21:54.974Z,49.02
2022-09-06T13:25:25.619Z,48.92
2022-09-06T13:28:32.527Z,48.70
2022-09-06T13:31:39.290Z,48.04
2022-09-06T13:34:52.332Z,47.39
2022-09-06T13:38:43.075Z,47.63
2022-09-06T13:41:44.982Z,47.85
2022-09-06T13:44:49.604Z,48.00
2022-09-06T13:48:03.454Z,47.60
2022-09-06T13:51:30.921Z,47.12
2022-09-06T13:54:42.450Z,47.31
2022-09-06T13:57:44.352Z,47.42
2022-09-06T14:00:46.912Z,47.01
2022-09-06T14:03:49.692Z,47.33
2022-09-06T14:06:51.443Z,47.21
2022-09-06T14:09:53.372Z,47.44
2022-09-06T14:12:55.134Z,47.64
2022-09-06T14:16:10.615Z,46.80
2022-09-06T14:19:12.300Z,46.54
2022-09-06T14:22:19.822Z,46.60
2022-09-06T14:25:24.295Z,46.53
2022-09-06T14:28:26.863Z,47.08
2022-09-06T14:31:29.104Z,47.26
2022-09-06T14:34:35.003Z,46.66
2022-09-06T14:37:37.818Z,46.57
2022-09-06T14:40:41.115Z,45.91
2022-09-06T14:43:45.961Z,45.92
2022-09-06T14:46:57.565Z,45.93
2022-09-06T14:50:00.459Z,46.06
2022-09-06T14:53:02.720Z,46.06
2022-09-06T14:56:04.987Z,46.10
2022-09-06T14:59:07.540Z,45.84
2022-09-06T15:02:09.507Z,45.64
2022-09-06T15:05:11.283Z,46.31
2022-09-06T15:08:15.291Z,46.60
2022-09-06T15:11:52.235Z,46.69
2022-09-06T15:14:53.962Z,46.21
2022-09-06T15:17:55.725Z,45.82
2022-09-06T15:21:14.568Z,45.64
2022-09-06T15:24:18.714Z,45.71
2022-09-06T15:27:20.429Z,45.94
2022-09-06T15:30:22.315Z,46.46
2022-09-06T15:33:23.985Z,45.30
2022-09-06T15:36:25.739Z,44.71
2022-09-06T15:39:30.406Z,45.29
2022-09-06T15:42:32.494Z,46.11
2022-09-06T15:45:47.663Z,45.14
2022-09-06T15:48:52.343Z,45.54
2022-09-06T15:52:06.017Z,46.06
2022-09-06T15:55:41.624Z,46.14
2022-09-06T15:58:46.377Z,46.11
2022-09-06T16:01:48.320Z,45.70
2022-09-06T16:04:50.092Z,45.99
2022-09-06T16:07:51.878Z,46.37
2022-09-06T16:10:53.873Z,46.06
2022-09-06T16:13:56.234Z,45.92
2022-09-06T16:16:58.141Z,46.59
2022-09-06T16:20:01.168Z,46.57
2022-09-06T16:23:02.871Z,47.00
2022-09-06T16:26:09.057Z,47.00
2022-09-06T16:29:17.294Z,47.28
2022-09-06T16:32:19.233Z,47.51
2022-09-06T16:35:20.866Z,47.90
2022-09-06T16:38:22.673Z,47.86
2022-09-06T16:41:31.304Z,48.15
2022-09-06T16:44:32.992Z,48.32
2022-09-06T16:47:34.626Z,48.64
2022-09-06T16:50:36.345Z,48.65
2022-09-06T16:53:43.296Z,49.06
2022-09-06T16:56:45.621Z,48.92
2022-09-06T16:59:48.622Z,49.04
2022-09-06T17:02:50.480Z,49.35
2022-09-06T17:05:55.498Z,49.64
2022-09-06T17:09:01.111Z,49.45
2022-09-06T17:12:12.746Z,49.97
2022-09-06T17:15:14.478Z,49.58
2022-09-06T17:18:16.444Z,49.78
2022-09-06T17:21:19.264Z,49.47
2022-09-06T17:24:22.257Z,50.01
2022-09-06T17:27:26.052Z,49.90
2022-09-06T17:30:27.995Z,50.21
2022-09-06T17:33:31.224Z,50.52
2022-09-06T17:36:36.098Z,50.32
2022-09-06T17:39:38.611Z,50.80
2022-09-06T17:42:40.359Z,50.83
2022-09-06T17:45:42.934Z,50.50
2022-09-06T17:48:44.800Z,50.86
2022-09-06T17:51:49.323Z,51.08
2022-09-06T17:54:51.168Z,51.03
2022-09-06T17:57:53.039Z,51.33
2022-09-06T18:00:57.634Z,51.65
2022-09-06T18:04:00.044Z,51.63
2022-09-06T18:07:02.304Z,52.11
2022-09-06T18:10:04.345Z,51.92
2022-09-06T18:13:06.606Z,52.27
2022-09-06T18:16:09.383Z,52.41
2022-09-06T18:19:15.175Z,52.67
2022-09-06T18:22:19.287Z,53.16
2022-09-06T18:25:21.233Z,53.47
2022-09-06T18:28:32.073Z,53.91
2022-09-06T18:31:34.236Z,54.38
2022-09-06T18:34:46.587Z,53.97
2022-09-06T18:42:29.351Z,54.21
2022-09-06T18:45:43.094Z,54.95
2022-09-06T18:49:03.363Z,55.48
2022-09-06T18:56:26.188Z,57.23
2022-09-06T19:00:50.124Z,57.86
2022-09-06T19:03:10.026Z,58.14
2022-09-06T19:07:14.079Z,58.88
2022-09-06T19:10:10.930Z,58.99
2022-09-06T19:21:00.787Z,60.57
2022-09-06T19:24:05.200Z,61.14
2022-09-06T19:27:10.679Z,61.75
2022-09-06T19:32:31.038Z,61.85
2022-09-06T19:34:38.103Z,62.21
2022-09-06T19:37:39.971Z,62.55
2022-09-06T19:40:54.110Z,63.22
2022-09-06T19:43:57.477Z,63.13
2022-09-06T19:47:00.326Z,63.44
2022-09-06T19:50:03.665Z,63.89
2022-09-06T19:53:07.426Z,63.71
2022-09-06T19:56:09.673Z,64.22
2022-09-06T19:59:12.925Z,64.32
2022-09-06T20:02:14.686Z,64.80
2022-09-06T20:05:18.014Z,64.98
2022-09-06T20:08:19.680Z,65.42
2022-09-06T20:11:25.556Z,65.52
2022-09-06T20:14:27.281Z,65.80
2022-09-06T20:17:33.792Z,65.92
2022-09-06T20:20:35.934Z,66.58
2022-09-06T20:23:37.845Z,66.58
2022-09-06T20:26:40.670Z,66.59
2022-09-06T20:29:42.477Z,66.81
2022-09-06T20:32:44.156Z,67.00
2022-09-06T20:35:54.744Z,67.20
2022-09-06T20:38:56.789Z,67.59
2022-09-06T20:41:58.577Z,67.71
2022-09-06T20:45:00.382Z,67.86
2022-09-06T20:48:02.310Z,68.21
2022-09-06T20:51:07.133Z,68.40
2022-09-06T20:54:10.513Z,68.74
2022-09-06T20:57:12.238Z,69.04
2022-09-06T21:00:14.648Z,69.42
2022-09-06T21:03:16.402Z,69.60
2022-09-06T21:06:18.904Z,69.77
2022-09-06T21:09:20.633Z,69.75
2022-09-06T21:12:22.369Z,69.92
2022-09-06T21:15:24.021Z,70.19
2022-09-06T21:18:27.529Z,70.22
2022-09-06T21:21:30.512Z,70.31
2022-09-06T21:24:33.906Z,70.75
2022-09-06T21:27:37.837Z,70.87
2022-09-06T21:30:39.608Z,70.83
2022-09-06T21:33:43.636Z,71.10
2022-09-06T21:36:45.371Z,71.40
2022-09-06T21:39:47.499Z,71.60
2022-09-06T21:42:49.235Z,71.73
2022-09-06T21:45:50.947Z,72.00
2022-09-06T21:48:54.303Z,72.13
2022-09-06T21:51:55.995Z,72.25
2022-09-06T21:54:57.926Z,72.52
2022-09-06T21:57:59.677Z,72.54
2022-09-06T22:01:02.194Z,73.08
2022-09-06T22:04:06.014Z,73.11
2022-09-06T22:07:07.828Z,73.48
2022-09-06T22:10:09.664Z,73.74
2022-09-06T22:13:11.411Z,74.05
2022-09-06T22:16:15.183Z,74.02
2022-09-06T22:19:16.905Z,74.08
2022-09-06T22:22:18.965Z,74.26
2022-09-06T22:25:20.704Z,74.29
2022-09-06T22:28:22.449Z,74.50
2022-09-06T22:31:26.832Z,74.70
2022-09-06T22:34:28.859Z,74.57
2022-09-06T22:37:30.637Z,74.64
2022-09-06T22:40:32.336Z,74.79
2022-09-06T22:43:34.066Z,74.96
2022-09-06T22:46:36.094Z,75.07
2022-09-06T22:49:37.832Z,75.17
2022-09-06T22:52:39.536Z,75.05
2022-09-06T22:55:46.831Z,75.24
2022-09-06T22:58:48.651Z,75.57
2022-09-06T23:01:50.498Z,75.55
2022-09-06T23:04:52.252Z,75.69
2022-09-06T23:07:54.056Z,76.06
2022-09-06T23:10:55.732Z,76.13
2022-09-06T23:13:58.909Z,76.31
2022-09-06T23:17:00.680Z,76.41
2022-09-06T23:20:03.886Z,76.68
2022-09-06T23:23:07.309Z,76.73
2022-09-06T23:26:16.343Z,76.77
2022-09-06T23:29:18.011Z,76.86
2022-09-06T23:32:20.010Z,76.99
2022-09-06T23:35:22.275Z,77.15
2022-09-06T23:38:23.955Z,77.24
2022-09-06T23:41:25.918Z,77.62
2022-09-06T23:44:28.189Z,77.72
2022-09-06T23:47:30.184Z,77.83
2022-09-06T23:50:32.161Z,77.80
2022-09-06T23:53:34.055Z,77.96
2022-09-06T23:56:35.858Z,78.06
2022-09-06T23:59:37.593Z,78.04
